MLS of Myrtle Beach - click to go to home page
Free Carolina Homes and Interiors magazine offer
Thursday, November 22, 2018 | 6:08 AM
Currently: , ° F
More Weather

2018/11/22 10:53
KEWB 221053Z AUTO 30012G19KT 10SM CLR M08/M19 A3024 RMK AO2 SLP240 T10831189







Close

Quick Search Myrtle Beach MLS

Property Type
City
Price
Bedrooms
Baths

 



Share/Save/Bookmark

Who is WEZV FM Radio?

Find a doctor

WEZV Realtor Directory

WEZV is currently accepting requests to be added to our Realtor Directory.

Are you a realtor? Email WEZV and submit your info!

Easy 105.9, Easy 100.7 Myrtle Beach, SC logoContact Us Today
Phone: 843.903.9962 • Fax: 843.903.1797 • Studio: 843.236.4488
WEZV-FM P.O. Box 2830 • Myrtle Beach, SC 29578